createdAt,value
2023-03-17T00:00:23.733Z,96565.25
2023-03-17T00:02:59.621Z,96562.00
2023-03-17T00:05:33.360Z,96571.00
2023-03-17T00:08:12.507Z,96569.94
2023-03-17T00:10:39.159Z,96573.72
2023-03-17T00:13:06.363Z,96576.53
2023-03-17T00:15:33.138Z,96568.56
2023-03-17T00:17:59.698Z,96574.47
2023-03-17T00:20:29.535Z,96568.38
2023-03-17T00:22:59.234Z,96570.03
2023-03-17T00:25:28.982Z,96561.88
2023-03-17T00:27:58.204Z,96562.28
2023-03-17T00:30:27.951Z,96562.94
2023-03-17T00:32:57.701Z,96560.25
2023-03-17T00:35:28.986Z,96559.19
2023-03-17T00:37:57.694Z,96557.63
2023-03-17T00:40:31.390Z,96547.31
2023-03-17T00:43:00.149Z,96551.53
2023-03-17T00:45:27.206Z,96539.84
2023-03-17T00:47:56.061Z,96552.16
2023-03-17T00:50:25.478Z,96553.38
2023-03-17T00:52:55.229Z,96554.75
2023-03-17T00:55:23.444Z,96547.00
2023-03-17T00:57:50.752Z,96534.91
2023-03-17T01:00:24.639Z,96538.56
2023-03-17T01:02:57.354Z,96540.91
2023-03-17T01:05:26.117Z,96544.91
2023-03-17T01:07:55.154Z,96539.19
2023-03-17T01:10:28.374Z,96537.78
2023-03-17T01:13:00.536Z,96541.31
2023-03-17T01:15:31.593Z,96542.34
2023-03-17T01:17:59.544Z,96550.09
2023-03-17T01:20:29.396Z,96548.53
2023-03-17T01:22:56.199Z,96545.72
2023-03-17T01:25:23.726Z,96541.72
2023-03-17T01:27:50.965Z,96544.03
2023-03-17T01:30:20.680Z,96551.66
2023-03-17T01:32:47.460Z,96550.91
2023-03-17T01:35:14.610Z,96542.00
2023-03-17T01:37:41.411Z,96534.91
2023-03-17T01:40:12.848Z,96540.91
2023-03-17T01:42:40.037Z,96532.97
2023-03-17T01:45:28.525Z,96515.19
2023-03-17T01:47:55.125Z,96504.88
2023-03-17T01:50:21.876Z,96498.25
2023-03-17T01:52:48.664Z,96501.03
2023-03-17T01:55:17.954Z,96490.94
2023-03-17T01:57:56.409Z,96481.75
2023-03-17T02:00:24.914Z,96484.28
2023-03-17T02:02:57.108Z,96485.22
2023-03-17T02:05:29.902Z,96478.94
2023-03-17T02:07:56.777Z,96480.19
2023-03-17T02:10:29.828Z,96471.13
2023-03-17T02:13:00.314Z,96458.88
2023-03-17T02:15:37.832Z,96456.53
2023-03-17T02:18:04.688Z,96466.72
2023-03-17T02:20:31.579Z,96470.81
2023-03-17T02:22:59.551Z,96473.97
2023-03-17T02:25:29.199Z,96468.56
2023-03-17T02:28:01.841Z,96472.28
2023-03-17T02:30:29.066Z,96470.41
2023-03-17T02:32:55.886Z,96473.00
2023-03-17T02:35:23.438Z,96470.31
2023-03-17T02:37:50.132Z,96468.34
2023-03-17T02:40:17.491Z,96464.34
2023-03-17T02:42:44.815Z,96451.50
2023-03-17T02:45:12.716Z,96448.16
2023-03-17T02:47:40.038Z,96444.16
2023-03-17T02:50:07.771Z,96444.16
2023-03-17T02:52:34.375Z,96451.16
2023-03-17T02:55:01.115Z,96445.09
2023-03-17T02:57:27.681Z,96439.94
2023-03-17T02:59:54.275Z,96445.09
2023-03-17T03:02:20.902Z,96434.88
2023-03-17T03:04:47.790Z,96449.09
2023-03-17T03:07:14.462Z,96451.22
2023-03-17T03:09:42.165Z,96455.50
2023-03-17T03:12:10.102Z,96437.31
2023-03-17T03:14:36.774Z,96433.59
2023-03-17T03:17:04.510Z,96442.72
2023-03-17T03:19:31.232Z,96441.09
2023-03-17T03:21:57.893Z,96424.31
2023-03-17T03:24:24.471Z,96434.69
2023-03-17T03:26:51.799Z,96414.69
2023-03-17T03:29:18.446Z,96426.19
2023-03-17T03:31:45.126Z,96431.31
2023-03-17T03:34:12.017Z,96441.31
2023-03-17T03:36:38.626Z,96439.81
2023-03-17T03:39:05.254Z,96439.97
2023-03-17T03:41:31.880Z,96438.03
2023-03-17T03:43:58.510Z,96449.44
2023-03-17T03:46:26.722Z,96448.03
2023-03-17T03:48:54.737Z,96442.22
2023-03-17T03:51:21.356Z,96447.06
2023-03-17T03:53:50.736Z,96452.78
2023-03-17T03:56:17.438Z,96448.66
2023-03-17T03:58:44.047Z,96448.31
2023-03-17T04:01:10.648Z,96441.25
2023-03-17T04:03:38.528Z,96434.72
2023-03-17T04:06:05.867Z,96438.84
2023-03-17T04:08:32.530Z,96437.53
2023-03-17T04:10:59.183Z,96436.59
2023-03-17T04:13:25.777Z,96429.63
2023-03-17T04:15:52.764Z,96432.78
2023-03-17T04:18:19.546Z,96426.50
2023-03-17T04:20:46.104Z,96436.81
2023-03-17T04:23:12.884Z,96430.44
2023-03-17T04:25:39.473Z,96433.25
2023-03-17T04:28:06.464Z,96439.13
2023-03-17T04:30:33.298Z,96448.97
2023-03-17T04:32:59.953Z,96453.47
2023-03-17T04:35:27.142Z,96448.97
2023-03-17T04:37:53.794Z,96448.59
2023-03-17T04:40:20.745Z,96446.41
2023-03-17T04:42:47.413Z,96446.69
2023-03-17T04:45:15.557Z,96456.63
2023-03-17T04:47:42.625Z,96453.91
2023-03-17T04:50:10.352Z,96451.06
2023-03-17T04:52:37.689Z,96454.53
2023-03-17T04:55:08.316Z,96457.09
2023-03-17T04:57:36.136Z,96458.75
2023-03-17T05:00:05.060Z,96468.78
2023-03-17T05:02:43.797Z,96472.97
2023-03-17T05:05:10.385Z,96471.13
2023-03-17T05:07:36.971Z,96468.97
2023-03-17T05:10:04.286Z,96480.00
2023-03-17T05:12:31.118Z,96477.88
2023-03-17T05:14:57.732Z,96474.47
2023-03-17T05:17:24.377Z,96460.84
2023-03-17T05:19:51.010Z,96457.56
2023-03-17T05:22:17.600Z,96460.53
2023-03-17T05:24:44.303Z,96468.84
2023-03-17T05:27:11.051Z,96450.72
2023-03-17T05:29:38.107Z,96457.53
2023-03-17T05:32:05.043Z,96463.44
2023-03-17T05:34:32.119Z,96468.81
2023-03-17T05:36:58.707Z,96461.56
2023-03-17T05:39:25.338Z,96459.47
2023-03-17T05:41:52.296Z,96452.41
2023-03-17T05:44:20.361Z,96449.84
2023-03-17T05:46:46.953Z,96457.97
2023-03-17T05:49:13.619Z,96470.19
2023-03-17T05:51:41.975Z,96467.63
2023-03-17T05:54:09.429Z,96471.53
2023-03-17T05:56:36.533Z,96460.47
2023-03-17T05:59:04.585Z,96465.28
2023-03-17T06:01:31.442Z,96462.59
2023-03-17T06:03:58.135Z,96460.38
2023-03-17T06:06:25.827Z,96453.66
2023-03-17T06:08:52.462Z,96458.75
2023-03-17T06:11:21.469Z,96456.66
2023-03-17T06:13:48.513Z,96451.13
2023-03-17T06:16:15.292Z,96446.78
2023-03-17T06:18:42.044Z,96445.63
2023-03-17T06:21:08.644Z,96453.91
2023-03-17T06:23:36.591Z,96455.56
2023-03-17T06:26:03.390Z,96455.03
2023-03-17T06:28:30.685Z,96461.38
2023-03-17T06:30:57.386Z,96460.69
2023-03-17T06:33:24.980Z,96461.13
2023-03-17T06:35:51.716Z,96461.06
2023-03-17T06:38:18.384Z,96457.63
2023-03-17T06:40:44.962Z,96442.38
2023-03-17T06:43:11.547Z,96447.81
2023-03-17T06:45:38.194Z,96438.94
2023-03-17T06:48:04.964Z,96448.97
2023-03-17T06:50:31.905Z,96448.97
2023-03-17T06:52:58.605Z,96443.59
2023-03-17T06:55:25.231Z,96447.53
2023-03-17T06:57:52.455Z,96455.09
2023-03-17T07:00:20.981Z,96458.88
2023-03-17T07:02:55.507Z,96457.97
2023-03-17T07:05:22.811Z,96454.84
2023-03-17T07:07:49.786Z,96457.13
2023-03-17T07:10:17.296Z,96450.59
2023-03-17T07:12:44.961Z,96443.94
2023-03-17T07:15:12.548Z,96448.41
2023-03-17T07:17:39.270Z,96458.59
2023-03-17T07:20:06.857Z,96463.63
2023-03-17T07:22:33.645Z,96464.22
2023-03-17T07:25:00.352Z,96461.75
2023-03-17T07:27:27.046Z,96458.50
2023-03-17T07:29:53.758Z,96451.38
2023-03-17T07:32:20.358Z,96457.47
2023-03-17T07:34:47.085Z,96457.16
2023-03-17T07:37:13.699Z,96465.50
2023-03-17T07:39:40.301Z,96463.19
2023-03-17T07:42:06.939Z,96453.91
2023-03-17T07:44:33.780Z,96441.38
2023-03-17T07:47:00.404Z,96444.22
2023-03-17T07:49:40.472Z,96443.03
2023-03-17T07:52:09.228Z,96446.38
2023-03-17T07:54:37.032Z,96431.41
2023-03-17T07:57:04.590Z,96439.28
2023-03-17T07:59:31.738Z,96447.22
2023-03-17T08:02:05.840Z,96447.91
2023-03-17T08:04:32.480Z,96447.53
2023-03-17T08:06:59.058Z,96451.09
2023-03-17T08:09:25.800Z,96454.38
2023-03-17T08:11:52.603Z,96466.44
2023-03-17T08:14:19.689Z,96463.63
2023-03-17T08:16:46.417Z,96465.19
2023-03-17T08:19:13.156Z,96458.63
2023-03-17T08:21:39.951Z,96448.84
2023-03-17T08:24:06.997Z,96440.78
2023-03-17T08:26:33.886Z,96439.22
2023-03-17T08:29:01.353Z,96437.69
2023-03-17T08:31:28.623Z,96431.50
2023-03-17T08:33:57.262Z,96449.28
2023-03-17T08:36:24.382Z,96452.75
2023-03-17T08:38:51.285Z,96445.66
2023-03-17T08:41:21.264Z,96442.03
2023-03-17T08:43:48.416Z,96436.69
2023-03-17T08:46:24.096Z,96440.31
2023-03-17T08:48:54.078Z,96426.75
2023-03-17T08:51:24.254Z,96428.00
2023-03-17T08:53:52.224Z,96424.84
2023-03-17T08:56:19.414Z,96425.78
2023-03-17T08:58:47.025Z,96420.41
2023-03-17T09:01:15.314Z,96428.16
2023-03-17T09:03:42.696Z,96422.31
2023-03-17T09:06:12.385Z,96423.75
2023-03-17T09:08:44.677Z,96421.13
2023-03-17T09:11:14.779Z,96414.94
2023-03-17T09:13:41.612Z,96417.38
2023-03-17T09:16:08.933Z,96418.78
2023-03-17T09:18:36.237Z,96414.81
2023-03-17T09:21:04.097Z,96423.13
2023-03-17T09:23:31.104Z,96426.22
2023-03-17T09:25:58.082Z,96429.34
2023-03-17T09:28:24.985Z,96427.09
2023-03-17T09:30:52.831Z,96420.47
2023-03-17T09:33:19.509Z,96419.16
2023-03-17T09:35:46.091Z,96429.63
2023-03-17T09:38:12.841Z,96433.25
2023-03-17T09:40:48.737Z,96438.69
2023-03-17T09:43:37.200Z,96432.88
2023-03-17T09:46:36.024Z,96433.97
2023-03-17T09:49:28.480Z,96442.94
2023-03-17T09:51:55.665Z,96431.91
2023-03-17T09:54:25.158Z,96430.03
2023-03-17T09:57:01.721Z,96431.19
2023-03-17T09:59:40.478Z,96418.34
2023-03-17T10:02:19.894Z,96425.94
2023-03-17T10:04:48.849Z,96424.81
2023-03-17T10:07:22.628Z,96427.78
2023-03-17T10:10:03.151Z,96421.00
2023-03-17T10:12:47.203Z,96429.09
2023-03-17T10:15:20.033Z,96421.00
2023-03-17T10:17:47.698Z,96413.63
2023-03-17T10:20:26.031Z,96421.28
2023-03-17T10:22:58.672Z,96436.47
2023-03-17T10:25:32.747Z,96436.47
2023-03-17T10:28:09.134Z,96433.94
2023-03-17T10:30:36.369Z,96435.03
2023-03-17T10:33:07.243Z,96435.16
2023-03-17T10:35:36.463Z,96433.50
2023-03-17T10:38:19.396Z,96423.50
2023-03-17T10:40:54.874Z,96429.78
2023-03-17T10:43:22.632Z,96431.97
2023-03-17T10:46:18.303Z,96429.66
2023-03-17T10:48:52.396Z,96422.78
2023-03-17T10:51:36.985Z,96424.22
2023-03-17T10:54:26.636Z,96414.97
2023-03-17T10:57:02.887Z,96405.44
2023-03-17T10:59:33.285Z,96398.00
2023-03-17T11:02:07.847Z,96395.88
2023-03-17T11:04:42.875Z,96388.66
2023-03-17T11:07:18.673Z,96385.47
2023-03-17T11:09:57.576Z,96385.34
2023-03-17T11:12:26.671Z,96391.19
2023-03-17T11:15:05.339Z,96404.06
2023-03-17T11:17:52.395Z,96405.16
2023-03-17T11:20:40.952Z,96395.16
2023-03-17T11:23:46.788Z,96383.44
2023-03-17T11:26:35.633Z,96376.25
2023-03-17T11:29:17.580Z,96377.44
2023-03-17T11:32:11.815Z,96372.09
2023-03-17T11:35:02.320Z,96362.66
2023-03-17T11:37:38.790Z,96357.03
2023-03-17T11:40:12.078Z,96362.47
2023-03-17T11:42:59.352Z,96363.78
2023-03-17T11:45:47.416Z,96363.25
2023-03-17T11:48:37.513Z,96358.19
2023-03-17T11:51:34.629Z,96365.31
2023-03-17T11:54:10.991Z,96367.97
2023-03-17T11:57:03.609Z,96382.63
2023-03-17T11:59:48.342Z,96384.66
2023-03-17T12:02:27.800Z,96372.38
2023-03-17T12:05:01.534Z,96368.53
2023-03-17T12:07:39.876Z,96364.66
2023-03-17T12:10:16.166Z,96371.84
2023-03-17T12:13:01.412Z,96365.66
2023-03-17T12:15:36.307Z,96359.13
2023-03-17T12:18:13.330Z,96364.56
2023-03-17T12:21:05.517Z,96359.41
2023-03-17T12:23:45.316Z,96362.09
2023-03-17T12:26:16.740Z,96358.94
2023-03-17T12:28:59.257Z,96342.16
2023-03-17T12:31:43.249Z,96361.84
2023-03-17T12:34:20.935Z,96362.81
2023-03-17T12:36:49.701Z,96360.06
2023-03-17T12:39:22.566Z,96362.75
2023-03-17T12:42:13.653Z,96367.72
2023-03-17T12:44:59.108Z,96373.19
2023-03-17T12:47:48.447Z,96362.69
2023-03-17T12:51:07.436Z,96362.59
2023-03-17T12:53:39.265Z,96368.97
2023-03-17T12:56:20.091Z,96360.84
2023-03-17T12:58:54.004Z,96358.50
2023-03-17T13:01:34.882Z,96354.28
2023-03-17T13:04:18.377Z,96355.06
2023-03-17T13:07:08.038Z,96341.13
2023-03-17T13:09:44.611Z,96340.59
2023-03-17T13:12:40.614Z,96327.44
2023-03-17T13:15:29.080Z,96325.38
2023-03-17T13:18:19.121Z,96322.97
2023-03-17T13:20:59.784Z,96326.63
2023-03-17T13:23:48.002Z,96320.47
2023-03-17T13:26:21.448Z,96328.38
2023-03-17T13:28:51.400Z,96327.00
2023-03-17T13:31:27.879Z,96332.38
2023-03-17T13:34:14.028Z,96320.97
2023-03-17T13:37:23.638Z,96327.38
2023-03-17T13:40:26.624Z,96320.06
2023-03-17T13:43:32.077Z,96317.00
2023-03-17T13:46:22.808Z,96306.84
2023-03-17T13:48:51.127Z,96297.13
2023-03-17T13:51:25.485Z,96305.63
2023-03-17T13:53:59.521Z,96308.47
2023-03-17T13:56:47.062Z,96305.97
2023-03-17T13:59:36.885Z,96302.72
2023-03-17T14:02:17.210Z,96303.41
2023-03-17T14:04:56.421Z,96292.63
2023-03-17T14:07:29.315Z,96304.13
2023-03-17T14:10:00.617Z,96309.63
2023-03-17T14:12:43.101Z,96309.63
2023-03-17T14:15:24.713Z,96298.97
2023-03-17T14:17:59.275Z,96297.63
2023-03-17T14:20:28.572Z,96294.09
2023-03-17T14:23:01.081Z,96295.59
2023-03-17T14:25:37.556Z,96293.09
2023-03-17T14:28:10.694Z,96296.78
2023-03-17T14:30:40.030Z,96280.34
2023-03-17T14:33:21.764Z,96291.22
2023-03-17T14:35:52.109Z,96300.00
2023-03-17T14:38:25.028Z,96294.97
2023-03-17T14:41:17.096Z,96294.53
2023-03-17T14:43:45.025Z,96287.78
2023-03-17T14:46:27.067Z,96290.38
2023-03-17T14:48:59.772Z,96294.97
2023-03-17T14:51:36.789Z,96302.47
2023-03-17T14:54:13.602Z,96290.91
2023-03-17T14:56:44.660Z,96298.63
2023-03-17T14:59:24.728Z,96298.75
2023-03-17T15:01:58.775Z,96295.00
2023-03-17T15:04:28.086Z,96299.84
2023-03-17T15:07:01.765Z,96305.41
2023-03-17T15:09:41.676Z,96290.19
2023-03-17T15:12:26.594Z,96293.44
2023-03-17T15:14:56.417Z,96301.66
2023-03-17T15:17:28.211Z,96310.47
2023-03-17T15:20:00.413Z,96302.50
2023-03-17T15:22:36.244Z,96309.91
2023-03-17T15:25:17.283Z,96307.53
2023-03-17T15:27:44.873Z,96309.22
2023-03-17T15:30:12.795Z,96304.63
2023-03-17T15:32:39.746Z,96310.59
2023-03-17T15:35:08.453Z,96302.38
2023-03-17T15:37:35.768Z,96312.41
2023-03-17T15:40:03.443Z,96314.22
2023-03-17T15:42:32.733Z,96316.28
2023-03-17T15:45:01.254Z,96323.56
2023-03-17T15:47:30.094Z,96318.94
2023-03-17T15:50:12.214Z,96309.91
2023-03-17T15:52:38.814Z,96316.75
2023-03-17T15:55:18.418Z,96309.78
2023-03-17T15:57:53.810Z,96301.56
2023-03-17T16:00:23.694Z,96304.06
2023-03-17T16:02:55.398Z,96290.16
2023-03-17T16:05:24.600Z,96287.63
2023-03-17T16:07:52.564Z,96291.81
2023-03-17T16:10:27.842Z,96281.63
2023-03-17T16:12:54.857Z,96289.56
2023-03-17T16:15:27.898Z,96293.72
2023-03-17T16:17:59.183Z,96297.63
2023-03-17T16:20:36.647Z,96295.69
2023-03-17T16:23:08.761Z,96289.25
2023-03-17T16:25:36.799Z,96285.34
2023-03-17T16:28:16.686Z,96292.00
2023-03-17T16:30:46.241Z,96299.47
2023-03-17T16:33:24.930Z,96289.63
2023-03-17T16:35:53.588Z,96284.66
2023-03-17T16:38:22.937Z,96288.22
2023-03-17T16:40:55.755Z,96292.34
2023-03-17T16:43:28.954Z,96296.91
2023-03-17T16:45:58.883Z,96296.47
2023-03-17T16:48:35.137Z,96303.34
2023-03-17T16:51:04.619Z,96305.94
2023-03-17T16:53:31.566Z,96312.81
2023-03-17T16:55:58.935Z,96314.41
2023-03-17T16:58:37.252Z,96313.94
2023-03-17T17:01:12.240Z,96308.94
2023-03-17T17:03:38.968Z,96319.81
2023-03-17T17:06:07.327Z,96323.28
2023-03-17T17:08:34.402Z,96315.63
2023-03-17T17:11:01.585Z,96316.72
2023-03-17T17:13:28.711Z,96331.00
2023-03-17T17:15:57.689Z,96326.69
2023-03-17T17:18:26.146Z,96324.06
2023-03-17T17:20:54.313Z,96322.44
2023-03-17T17:23:26.139Z,96314.47
2023-03-17T17:25:54.544Z,96325.03
2023-03-17T17:28:23.787Z,96325.72
2023-03-17T17:30:52.393Z,96324.06
2023-03-17T17:33:21.461Z,96314.97
2023-03-17T17:35:49.855Z,96312.75
2023-03-17T17:38:26.661Z,96326.19
2023-03-17T17:40:55.760Z,96318.59
2023-03-17T17:43:24.593Z,96323.63
2023-03-17T17:45:52.711Z,96319.88
2023-03-17T17:48:23.358Z,96316.41
2023-03-17T17:50:52.198Z,96320.84
2023-03-17T17:53:19.387Z,96321.69
2023-03-17T17:55:48.330Z,96320.25
2023-03-17T17:58:18.422Z,96328.84
2023-03-17T18:00:46.004Z,96334.41
2023-03-17T18:03:13.357Z,96323.84
2023-03-17T18:05:40.486Z,96327.47
2023-03-17T18:08:07.707Z,96335.78
2023-03-17T18:10:35.088Z,96336.22
2023-03-17T18:13:01.777Z,96338.63
2023-03-17T18:15:29.007Z,96342.66
2023-03-17T18:17:56.442Z,96340.84
2023-03-17T18:20:24.451Z,96339.06
2023-03-17T18:22:52.363Z,96347.56
2023-03-17T18:25:20.238Z,96355.03
2023-03-17T18:27:47.934Z,96351.81
2023-03-17T18:30:22.592Z,96350.84
2023-03-17T18:32:52.387Z,96355.84
2023-03-17T18:35:22.777Z,96360.56
2023-03-17T18:37:50.826Z,96359.19
2023-03-17T18:40:19.183Z,96364.59
2023-03-17T18:42:46.412Z,96358.88
2023-03-17T18:45:13.907Z,96366.34
2023-03-17T18:47:41.968Z,96359.03
2023-03-17T18:50:12.022Z,96360.88
2023-03-17T18:52:41.101Z,96359.44
2023-03-17T18:55:10.074Z,96363.00
2023-03-17T18:57:37.154Z,96356.41
2023-03-17T19:00:05.902Z,96357.63
2023-03-17T19:02:33.345Z,96361.94
2023-03-17T19:05:01.075Z,96362.91
2023-03-17T19:07:28.010Z,96365.66
2023-03-17T19:09:54.781Z,96362.91
2023-03-17T19:12:21.538Z,96370.09
2023-03-17T19:14:48.304Z,96370.72
2023-03-17T19:17:14.964Z,96368.94
2023-03-17T19:19:41.863Z,96371.84
2023-03-17T19:22:09.525Z,96364.28
2023-03-17T19:24:37.709Z,96371.56
2023-03-17T19:27:05.303Z,96364.97
2023-03-17T19:29:32.787Z,96365.81
2023-03-17T19:31:59.450Z,96370.25
2023-03-17T19:34:27.145Z,96376.63
2023-03-17T19:36:54.065Z,96383.47
2023-03-17T19:39:21.625Z,96376.84
2023-03-17T19:41:50.075Z,96370.50
2023-03-17T19:44:16.853Z,96377.34
2023-03-17T19:46:43.437Z,96381.63
2023-03-17T19:49:11.738Z,96377.19
2023-03-17T19:51:38.393Z,96386.91
2023-03-17T19:54:05.428Z,96381.63
2023-03-17T19:56:32.074Z,96381.78
2023-03-17T19:58:58.675Z,96388.34
2023-03-17T20:01:26.706Z,96396.03
2023-03-17T20:03:53.395Z,96386.50
2023-03-17T20:06:20.443Z,96390.31
2023-03-17T20:08:47.062Z,96386.84
2023-03-17T20:11:13.925Z,96389.94
2023-03-17T20:13:41.017Z,96392.47
2023-03-17T20:16:08.211Z,96392.94
2023-03-17T20:18:35.120Z,96401.56
2023-03-17T20:21:05.582Z,96394.63
2023-03-17T20:23:33.311Z,96392.47
2023-03-17T20:25:59.968Z,96394.97
2023-03-17T20:28:28.271Z,96395.81
2023-03-17T20:31:01.172Z,96400.38
2023-03-17T20:33:27.857Z,96406.84
2023-03-17T20:35:54.625Z,96407.31
2023-03-17T20:38:21.362Z,96399.06
2023-03-17T20:40:47.970Z,96404.91
2023-03-17T20:43:14.810Z,96408.41
2023-03-17T20:45:43.631Z,96417.13
2023-03-17T20:48:11.585Z,96424.53
2023-03-17T20:50:39.096Z,96427.50
2023-03-17T20:53:05.903Z,96432.16
2023-03-17T20:55:33.083Z,96430.69
2023-03-17T20:57:59.943Z,96427.09
2023-03-17T21:00:26.751Z,96432.50
2023-03-17T21:03:09.389Z,96439.25
2023-03-17T21:05:36.776Z,96429.78
2023-03-17T21:08:05.509Z,96427.38
2023-03-17T21:10:32.907Z,96428.44
2023-03-17T21:12:59.870Z,96425.94
2023-03-17T21:15:27.314Z,96435.84
2023-03-17T21:17:53.902Z,96428.91
2023-03-17T21:20:21.669Z,96432.22
2023-03-17T21:22:48.368Z,96446.59
2023-03-17T21:25:15.112Z,96444.75
2023-03-17T21:27:42.911Z,96442.34
2023-03-17T21:30:12.724Z,96442.00
2023-03-17T21:32:40.698Z,96441.78
2023-03-17T21:35:08.529Z,96445.50
2023-03-17T21:37:35.544Z,96440.63
2023-03-17T21:40:02.493Z,96451.16
2023-03-17T21:42:29.416Z,96446.09
2023-03-17T21:44:56.021Z,96439.28
2023-03-17T21:47:23.019Z,96438.56
2023-03-17T21:49:49.773Z,96441.44
2023-03-17T21:52:16.832Z,96445.88
2023-03-17T21:54:43.667Z,96448.84
2023-03-17T21:57:12.234Z,96450.03
2023-03-17T21:59:40.268Z,96450.22
2023-03-17T22:02:12.871Z,96443.53
2023-03-17T22:04:41.754Z,96449.63
2023-03-17T22:07:08.424Z,96445.44
2023-03-17T22:09:36.238Z,96456.81
2023-03-17T22:12:04.469Z,96449.41
2023-03-17T22:14:31.391Z,96454.41
2023-03-17T22:16:58.632Z,96455.16
2023-03-17T22:19:25.970Z,96453.25
2023-03-17T22:21:53.083Z,96461.97
2023-03-17T22:24:19.762Z,96457.69
2023-03-17T22:26:46.622Z,96461.38
2023-03-17T22:29:13.804Z,96461.47
2023-03-17T22:31:42.687Z,96471.06
2023-03-17T22:34:10.075Z,96464.34
2023-03-17T22:36:37.651Z,96467.34
2023-03-17T22:39:06.968Z,96461.44
2023-03-17T22:41:34.094Z,96463.78
2023-03-17T22:44:01.173Z,96469.88
2023-03-17T22:46:28.044Z,96472.31
2023-03-17T22:48:55.144Z,96481.25
2023-03-17T22:51:24.615Z,96485.56
2023-03-17T22:53:52.554Z,96483.03
2023-03-17T22:56:19.981Z,96473.47
2023-03-17T22:58:47.179Z,96479.81
2023-03-17T23:01:17.024Z,96484.22
2023-03-17T23:03:44.255Z,96487.06
2023-03-17T23:06:13.112Z,96487.53
2023-03-17T23:08:42.912Z,96490.34
2023-03-17T23:11:23.423Z,96492.16
2023-03-17T23:13:52.621Z,96492.38
2023-03-17T23:16:20.377Z,96489.53
2023-03-17T23:18:47.241Z,96503.63
2023-03-17T23:21:30.227Z,96498.38
2023-03-17T23:23:57.257Z,96493.75
2023-03-17T23:26:24.019Z,96492.81
2023-03-17T23:28:51.286Z,96495.16
2023-03-17T23:31:19.402Z,96493.72
2023-03-17T23:33:47.855Z,96497.47
2023-03-17T23:36:16.255Z,96493.41
2023-03-17T23:38:44.350Z,96500.56
2023-03-17T23:41:13.506Z,96508.66
2023-03-17T23:43:40.755Z,96500.56
2023-03-17T23:46:07.402Z,96484.81
2023-03-17T23:48:34.131Z,96486.47
2023-03-17T23:51:01.160Z,96487.09
2023-03-17T23:53:28.396Z,96474.47
2023-03-17T23:55:55.144Z,96484.88
2023-03-17T23:58:22.815Z,96490.13
